Latest Weather Observations for Gatton

IDQ60901

Issued at 6:05 pm EST Saturday 30 August 2014 (issued every 10 minutes, with the page automatically refreshed every 10 minutes)

About weather observations | Map of Brisbane area stations | Latest observations for Brisbane area | Other Formats
Station Details ID: 040082 Name: UNIVERSITY OF QUEENSLAND GATTON Lat: -27.54 Lon: 152.34 Height: 89.0 m
Data from the previous 72 hours. | See also: Recent months at Gatton
Date/Time
EST
Tmp

°C
App
Tmp
°C
Dew
Point
°C
Rel
Hum
%
Delta-T

°C
Wind Press
QNH
hPa
Press
MSL
hPa
Rain
since
9 am
mm
Dir
 
Spd
km/h
Gust
km/h
Spd
kts
Gust
kts
30/06:00pm 20.0 18.2 9.6 51 5.6 ESE 9 11 5 6 - - 0.0
30/05:30pm 20.8 19.1 9.7 49 6.0 ESE 9 13 5 7 - - 0.0
30/05:00pm 21.6 19.2 8.8 44 6.8 E 11 17 6 9 - - 0.0
30/04:30pm 22.9 20.9 7.0 36 8.2 E 7 11 4 6 - - 0.0
30/04:00pm 23.7 21.3 6.9 34 8.7 SSE 9 13 5 7 - - 0.0
30/03:30pm 24.3 22.7 7.9 35 8.7 NNE 6 11 3 6 - - 0.0
30/03:00pm 24.3 22.2 6.6 32 9.2 W 7 13 4 7 - - 0.0
30/02:30pm 23.5 20.9 6.3 33 8.8 S 9 15 5 8 - - 0.0
30/02:00pm 23.3 21.0 7.4 36 8.3 ESE 9 17 5 9 - - 0.0
30/01:30pm 22.5 20.0 6.7 36 8.1 SE 9 13 5 7 - - 0.0
30/01:00pm 23.0 21.4 8.7 40 7.7 SE 7 13 4 7 - - 0.0
30/12:30pm 21.4 18.6 6.9 39 7.4 SE 11 15 6 8 - - 0.0
30/12:00pm 21.5 18.8 7.3 40 7.3 ESE 11 20 6 11 - - 0.0
30/11:30am 21.0 18.1 6.5 39 7.4 SE 11 17 6 9 - - 0.0
30/11:00am 20.5 18.2 4.9 36 7.7 ENE 6 9 3 5 - - 0.0
30/10:30am 19.6 16.8 5.3 39 7.0 NW 9 13 5 7 - - 0.0
30/10:00am 17.8 15.2 6.0 46 5.8 W 9 15 5 8 - - 0.0
30/09:30am 17.2 15.0 7.8 54 4.8 WNW 9 15 5 8 - - 0.0
30/09:00am 14.6 12.1 6.7 59 3.9 W 9 15 5 8 - - 0.0
30/08:30am 12.5 10.3 6.3 66 3.0 WNW 7 11 4 6 - - 0.0
30/08:00am 10.6 7.9 5.4 70 2.4 WNW 9 13 5 7 - - 0.0
30/07:30am 8.8 5.6 5.0 77 1.7 WNW 11 13 6 7 - - 0.0
30/07:00am 6.9 3.9 4.0 82 1.2 W 9 13 5 7 - - 0.0
30/06:30am 5.7 2.2 3.5 86 0.9 W 11 13 6 7 - - 0.0
30/06:00am 5.4 1.9 3.4 87 0.8 W 11 13 6 7 - - 0.0
30/05:30am 5.7 1.8 3.5 86 0.9 W 13 17 7 9 - - 0.0
30/05:00am 5.4 1.9 3.7 89 0.7 W 11 13 6 7 - - 0.0
30/04:30am 4.9 1.7 3.1 88 0.7 W 9 11 5 6 - - 0.0
30/04:00am 5.5 2.4 3.5 87 0.8 WSW 9 11 5 6 - - 0.0
30/03:30am 6.4 3.7 3.9 84 1.1 W 7 11 4 6 - - 0.0
30/03:00am 6.8 3.8 4.3 84 1.1 W 9 13 5 7 - - 0.0
30/02:30am 7.2 3.6 4.9 85 1.0 W 13 15 7 8 - - 0.0
30/02:00am 6.7 4.2 4.5 86 1.0 W 7 9 4 5 - - 0.0
30/01:30am 7.0 5.4 4.5 84 1.1 W 2 6 1 3 - - 0.0
30/01:00am 8.0 4.8 5.3 83 1.2 WSW 11 13 6 7 - - 0.0
30/12:30am 8.6 5.5 5.5 81 1.4 WSW 11 13 6 7 - - 0.0
30/12:00am 8.8 6.1 5.5 80 1.5 W 9 11 5 6 - - 0.0
 
Date/Time
EST
Tmp

°C
App
Tmp
°C
Dew
Point
°C
Rel
Hum
%
Delta-T

°C
Wind Press
QNH
hPa
Press
MSL
hPa
Rain
since
9 am
mm
Dir
 
Spd
km/h
Gust
km/h
Spd
kts
Gust
kts
29/11:30pm 8.5 5.8 5.8 83 1.2 WSW 9 11 5 6 - - 0.0
29/11:00pm 8.1 5.8 5.0 81 1.4 W 6 7 3 4 - - 0.0
29/10:30pm 9.5 7.4 6.6 82 1.4 WSW 7 9 4 5 - - 0.0
29/10:00pm 9.9 7.5 7.2 83 1.3 W 9 11 5 6 - - 0.0
29/09:30pm 11.0 10.4 7.5 79 1.7 CALM 0 6 0 3 - - 0.0
29/09:00pm 11.5 9.3 6.2 70 2.5 S 7 11 4 6 - - 0.0
29/08:30pm 12.6 10.4 6.0 64 3.1 SSW 7 9 4 5 - - 0.0
29/08:00pm 13.5 10.5 6.1 61 3.5 SSW 11 19 6 10 - - 0.0
29/07:30pm 14.2 11.5 5.8 57 4.0 WSW 9 11 5 6 - - 0.0
29/07:00pm 14.6 12.4 6.4 58 4.0 WNW 7 9 4 5 - - 0.0
29/06:30pm 15.0 12.5 4.7 50 4.8 NW 7 9 4 5 - - 0.0
29/06:00pm 18.4 15.5 4.6 40 6.6 NW 9 11 5 6 - - 0.0
29/05:30pm 19.9 17.4 4.8 37 7.4 W 7 11 4 6 - - 0.0
29/05:00pm 21.5 18.5 4.1 32 8.5 WNW 9 15 5 8 - - 0.0
29/04:30pm 22.1 17.5 3.7 30 8.9 WSW 17 22 9 12 - - 0.0
29/04:00pm 22.9 18.3 3.9 29 9.3 W 17 26 9 14 - - 0.0
29/03:30pm 22.7 17.4 2.8 27 9.5 W 20 28 11 15 - - 0.0
29/03:00pm 23.6 18.9 5.0 30 9.3 WSW 19 24 10 13 - - 0.0
29/02:30pm 23.0 19.7 4.5 30 9.2 WNW 11 19 6 10 - - 0.0
29/02:00pm 22.0 19.3 5.4 34 8.3 SW 9 19 5 10 - - 0.0
29/01:30pm 22.3 19.8 6.5 36 8.1 WSW 9 15 5 8 - - 0.0
29/01:00pm 21.6 19.6 6.3 37 7.8 NW 6 13 3 7 - - 0.0
29/12:30pm 21.0 19.2 5.4 36 7.8 NW 4 11 2 6 - - 0.0
29/12:00pm 20.2 17.4 6.9 42 6.8 N 11 17 6 9 - - 0.0
29/11:30am 20.1 17.5 7.8 45 6.4 N 11 15 6 8 - - 0.0
29/11:00am 18.9 16.5 7.0 46 6.0 NW 9 13 5 7 - - 0.0
29/10:30am 18.2 15.9 7.6 50 5.4 W 9 13 5 7 - - 0.0
29/10:00am 17.4 15.2 7.7 53 4.9 WNW 9 13 5 7 - - 0.0
29/09:30am 16.2 14.5 7.7 57 4.3 W 6 9 3 5 - - 0.0
29/09:00am 14.6 12.7 9.0 69 2.9 W 9 13 5 7 - - 0.0
29/08:30am 12.8 10.1 8.9 77 2.0 W 13 15 7 8 - - 0.0
29/08:00am 11.0 8.1 8.0 82 1.5 W 13 19 7 10 - - 0.0
29/07:30am 9.6 6.6 7.7 88 0.9 W 13 17 7 9 - - 0.0
29/07:00am 8.0 5.1 6.6 91 0.6 W 11 15 6 8 - - 0.0
29/06:30am 7.2 4.2 6.0 92 0.5 WSW 11 15 6 8 - - 0.0
29/06:00am 7.1 3.7 5.9 92 0.5 W 13 17 7 9 - - 0.0
29/05:30am 6.9 3.8 5.7 92 0.5 WSW 11 15 6 8 - - 0.0
29/05:00am 7.5 4.2 6.3 92 0.5 W 13 17 7 9 - - 0.0
29/04:30am 7.7 4.4 6.3 91 0.6 W 13 15 7 8 - - 0.0
29/04:00am 7.6 4.3 6.2 91 0.6 W 13 17 7 9 - - 0.0
29/03:30am 8.0 4.8 6.8 92 0.6 WSW 13 17 7 9 - - 0.0
29/03:00am 7.8 5.3 6.6 92 0.6 WSW 9 11 5 6 - - 0.0
29/02:30am 8.0 5.5 6.6 91 0.6 WSW 9 13 5 7 - - 0.0
29/02:00am 8.3 5.9 7.1 92 0.6 WSW 9 13 5 7 - - 0.0
29/01:30am 8.4 6.4 7.2 92 0.6 WSW 7 11 4 6 - - 0.0
29/01:00am 7.2 5.0 6.1 93 0.5 WSW 7 9 4 5 - - 0.0
29/12:30am 8.1 7.3 6.7 91 0.6 CALM 0 0 0 0 - - 0.0
29/12:00am 8.8 8.3 7.9 94 0.4 CALM 0 0 0 0 - - 0.0
 
Date/Time
EST
Tmp

°C
App
Tmp
°C
Dew
Point
°C
Rel
Hum
%
Delta-T

°C
Wind Press
QNH
hPa
Press
MSL
hPa
Rain
since
9 am
mm
Dir
 
Spd
km/h
Gust
km/h
Spd
kts
Gust
kts
28/11:30pm 8.3 6.2 6.6 89 0.8 N 7 9 4 5 - - 0.0
28/11:00pm 9.1 8.4 7.1 87 0.9 CALM 0 0 0 0 - - 0.0
28/10:30pm 10.1 8.3 7.3 83 1.3 N 6 7 3 4 - - 0.0
28/10:00pm 11.8 10.0 8.1 78 1.8 E 7 9 4 5 - - 0.0
28/09:30pm 12.3 10.8 8.4 77 1.9 ESE 6 9 3 5 - - 0.0
28/09:00pm 12.9 11.9 9.0 77 2.0 NW 4 7 2 4 - - 0.0
28/08:30pm 14.4 12.5 9.2 71 2.7 E 9 11 5 6 - - 0.0
28/08:00pm 15.2 13.2 8.7 65 3.3 ESE 9 13 5 7 - - 0.0
28/07:30pm 16.0 13.6 8.7 62 3.7 SSE 11 17 6 9 - - 0.0
28/07:00pm 16.2 14.1 8.2 59 4.1 S 9 13 5 7 - - 0.0
28/06:30pm 16.7 14.2 8.4 58 4.3 SSE 11 15 6 8 - - 0.0
28/06:00pm 17.5 14.7 8.6 56 4.6 SSE 13 19 7 10 - - 0.0
28/05:30pm 18.3 14.4 8.6 53 5.0 SE 19 28 10 15 - - 0.0
28/05:00pm 19.8 16.5 9.4 51 5.5 SSE 17 30 9 16 - - 0.0
28/04:30pm 20.3 16.3 8.3 46 6.3 SSE 19 26 10 14 - - 0.0
28/04:00pm 21.6 16.4 8.8 44 6.8 SSE 26 41 14 22 - - 0.0
28/03:30pm 21.2 15.9 8.5 44 6.7 SSE 26 37 14 20 - - 0.0
28/03:00pm 22.1 17.3 7.5 39 7.6 SSE 22 33 12 18 - - 0.0
28/02:30pm 22.7 17.4 8.4 40 7.6 SSE 26 37 14 20 - - 0.0
28/02:00pm 21.7 16.5 7.2 39 7.5 SSE 24 35 13 19 - - 0.0
28/01:30pm 22.8 16.2 8.5 40 7.6 SSE 33 43 18 23 - - 0.0
28/01:00pm 21.2 15.4 7.8 42 7.0 S 28 41 15 22 - - 0.0
28/12:30pm 22.2 16.6 8.7 42 7.2 S 28 43 15 23 - - 0.0
28/12:00pm 21.7 16.3 7.9 41 7.2 S 26 44 14 24 - - 0.0
28/11:30am 21.2 15.4 8.1 43 6.9 SSE 28 43 15 23 - - 0.0
28/11:00am 20.9 15.2 9.8 49 6.0 SSE 30 41 16 22 - - 0.0
28/10:30am 20.2 15.7 8.5 47 6.1 SSE 22 33 12 18 - - 0.0
28/10:00am 19.5 15.4 8.8 50 5.6 S 20 39 11 21 - - 0.0
28/09:30am 19.2 15.3 9.4 53 5.2 S 20 28 11 15 - - 0.0
28/09:00am 18.4 13.4 9.5 56 4.7 S 26 39 14 21 - - 6.6
28/08:30am 18.2 14.4 11.0 63 3.9 S 22 30 12 16 - - 6.6
28/08:00am 15.7 13.4 11.9 78 2.1 W 15 20 8 11 - - 6.6
28/07:30am 14.3 12.5 10.7 79 1.9 SW 11 19 6 10 - - 6.6
28/07:00am 12.6 11.1 10.5 87 1.1 WSW 9 13 5 7 - - 6.6
28/06:30am 11.9 10.2 9.8 87 1.1 WSW 9 15 5 8 - - 6.6
28/06:00am 12.0 10.0 10.1 88 1.0 W 11 15 6 8 - - 6.6
28/05:30am 11.6 9.6 10.0 90 0.8 WSW 11 13 6 7 - - 6.6
28/05:00am 11.3 9.2 9.6 89 0.9 SW 11 19 6 10 - - 6.6
28/04:30am 10.9 8.7 9.3 90 0.8 WSW 11 15 6 8 - - 6.6
28/04:00am 10.5 8.5 8.8 89 0.8 SW 9 11 5 6 - - 6.6
28/03:30am 11.2 9.7 9.1 87 1.1 WSW 7 9 4 5 - - 6.6
28/03:00am 11.8 10.4 9.4 85 1.2 WSW 7 13 4 7 - - 6.6
28/02:30am 11.7 9.9 9.4 86 1.2 WSW 9 15 5 8 - - 6.6
28/02:00am 11.8 9.6 9.4 85 1.2 W 11 15 6 8 - - 6.6
28/01:30am 12.0 9.5 9.6 85 1.2 W 13 19 7 10 - - 6.6
28/01:00am 12.2 9.3 9.6 84 1.3 W 15 20 8 11 - - 6.6
28/12:30am 12.4 9.2 9.8 84 1.3 W 17 22 9 12 - - 6.6
28/12:00am 12.4 9.2 10.0 85 1.2 W 17 24 9 13 - - 6.6
 
Date/Time
EST
Tmp

°C
App
Tmp
°C
Dew
Point
°C
Rel
Hum
%
Delta-T

°C
Wind Press
QNH
hPa
Press
MSL
hPa
Rain
since
9 am
mm
Dir
 
Spd
km/h
Gust
km/h
Spd
kts
Gust
kts
27/11:30pm 11.8 8.2 10.0 89 0.9 W 19 24 10 13 - - 6.6
27/11:00pm 11.9 9.0 9.8 87 1.1 W 15 20 8 11 - - 6.6
27/10:30pm 11.7 7.8 9.4 86 1.2 W 20 26 11 14 - - 6.4
27/10:00pm 12.2 8.6 8.5 78 1.8 W 17 24 9 13 - - 6.2
27/09:30pm 12.2 8.6 8.3 77 1.9 W 17 22 9 12 - - 6.2
27/09:00pm 12.2 8.5 8.1 76 2.0 W 17 20 9 11 - - 6.2
27/08:30pm 12.5 7.9 8.2 75 2.1 W 22 30 12 16 - - 6.2
27/08:00pm 12.2 8.6 8.3 77 1.9 W 17 22 9 12 - - 6.2
27/07:30pm 12.6 9.7 8.3 75 2.1 W 13 19 7 10 - - 6.0
27/07:00pm 13.0 9.5 8.9 76 2.1 W 17 22 9 12 - - 6.0
27/06:30pm 13.1 9.8 9.4 78 1.9 W 17 26 9 14 - - 6.0

Latest Capital City Observations: Canberra | Sydney | Melbourne | Brisbane | Adelaide | Perth | Hobart | Darwin

Other Formats:

Comma delimited format used in spreadsheet applications
http://www.bom.gov.au/fwo/IDQ60901/IDQ60901.94562.axf

JavaScript Object Notation format (JSON) in row-major order
http://www.bom.gov.au/fwo/IDQ60901/IDQ60901.94562.json